This is the latest recevied weather packets stored in our database for station/object N3SBK. If no packets are shown the sender has not sent any weather packets the latest 10 day(s).
| Time | Temp. | Humidity | Pressure | Rain* | Wind** | Luminosity | Snow |
|---|---|---|---|---|---|---|---|
| 1777411409 | 19.44° C | 71% | 1005.1 hPa | 0 mm | - | 134 W/m² | - |
| 1777411109 | 19.44° C | 69% | 1005.2 hPa | 0 mm | - | 112 W/m² | - |
| 1777410809 | 20° C | 69% | 1005 hPa | 0 mm | - | 103 W/m² | - |
| 1777410507 | 18.89° C | 72% | 1005.2 hPa | 0 mm | - | 386 W/m² | - |
| 1777410202 | 18.89° C | 71% | 1005.3 hPa | 0 mm | - | 156 W/m² | - |
| 1777409897 | 18.89° C | 73% | 1005.4 hPa | 0 mm | - | 308 W/m² | - |
| 1777409593 | 19.44° C | 71% | 1005.3 hPa | 0 mm | - | 201 W/m² | - |
| 1777409288 | 19.44° C | 71% | 1005.4 hPa | 0 mm | - | 103 W/m² | - |
| 1777408985 | 20° C | 70% | 1005.2 hPa | 0 mm | - | 104 W/m² | - |
| 1777408682 | 20° C | 69% | 1005.5 hPa | 0 mm | - | 528 W/m² | - |
| 1777408377 | 19.44° C | 70% | 1005.5 hPa | 0 mm | - | 488 W/m² | - |
| 1777408076 | 19.44° C | 72% | 1005.7 hPa | 0 mm | - | 201 W/m² | - |
| 1777407773 | 20° C | 72% | 1005.8 hPa | 0 mm | - | 211 W/m² | - |
| 1777407469 | 20° C | 72% | 1005.8 hPa | 0 mm | - | 483 W/m² | - |
| 1777407164 | 18.89° C | 74% | 1005.8 hPa | 0 mm | - | 482 W/m² | - |
| 1777406859 | 17.78° C | 77% | 1005.8 hPa | 0 mm | - | 422 W/m² | - |
| 1777406554 | 17.78° C | 77% | 1006 hPa | 0 mm | - | 192 W/m² | - |
| 1777406250 | 17.22° C | 79% | 1005.9 hPa | 0 mm | - | 150 W/m² | - |
| 1777405949 | 17.78° C | 78% | 1006.1 hPa | 0 mm | - | 107 W/m² | - |
| 1777405646 | 17.78° C | 78% | 1006 hPa | 0 mm | - | 134 W/m² | - |
| 1777405344 | 17.22° C | 80% | 1006.1 hPa | 0 mm | - | 188 W/m² | - |
| 1777405039 | 16.67° C | 80% | 1006.2 hPa | 0 mm | - | 239 W/m² | - |
| 1777404733 | 16.67° C | 80% | 1006.2 hPa | 0 mm | - | 174 W/m² | - |
| 1777404430 | 16.11° C | 82% | 1006.3 hPa | 0 mm | - | 200 W/m² | - |
| 1777404126 | 15.56° C | 83% | 1006.4 hPa | 0 mm | - | 207 W/m² | - |
* Rain latest hour (hover to see other rain measurements)
** Current wind speed in m/s (hover to see current wind gust speed)